MSSS/SAL METAR and TAF weather

Enter ICAO airport designator
Station Type Date Time Source
MSSS METAR 2021/09/19 13:50 UTC NOAA

MSSS 191350Z 36005KT CAVOK 23/23 Q1016 A3003


Station Type Date Time Source
MSSS Decoded METAR 2021/09/19 13:50 UTC NOAA

San Salvador / Ilopango, El Salvador (MSSS) 13-42N 089-07W 621M
Sep 19, 2021 - 09:50 AM EDT / 2021.09.19 1350 UTC
Wind: from the N (360 degrees) at 6 MPH (5 KT):0
Visibility: greater than 7 mile(s):0
Temperature: 73 F (23 C)
Dew Point: 73 F (23 C)
Relative Humidity: 100%
Pressure (altimeter): 30.03 in. Hg (1016 hPa)
ob: MSSS 191350Z 36005KT CAVOK 23/23 Q1016 A3003
cycle: 14

Station Type Date Time Source
MSSS TAF 2021/09/19 12:57 UTC NOAA

TAF MSSS 191000Z 1912/2012 02003KT 9999 FEW020 TX31/1919Z TN21/2010Z
FM191800 18008KT 9999 FEW027 FEW037CB PROB40
TEMPO 2003/2006 35008KT 5000 TSRA BKN023 SCT037CB

Example: see airport list